Time;durP1;ratioP1;P1;durP2;ratioP2;P2;SDS_P1;SDS_P2;PMS_P1;PMS_P2;Temp;Humidity;BMP_temperature;BMP_pressure;BME280_temperature;BME280_humidity;BME280_pressure;Samples;Min_cycle;Max_cycle;Signal;HPM_P1;HPM_P2
2024/03/22 00:02:09;;;;;;;;;;;;;;;;;;107246;1250;62101;-79
2024/03/22 00:04:35;;;;;;;;;;;;;;;;;;107102;1250;61956;-77
2024/03/22 00:07:02;;;;;;;;;;;;;;;;;;106623;1255;62077;-81
2024/03/22 00:09:29;;;;;;;;;;;;;;;;;;106615;1254;62618;-84
2024/03/22 00:11:55;;;;;;;;;;;;;;;;;;107172;1253;62208;-80
2024/03/22 00:14:21;;;;;;;;;;;;;;;;;;107210;1254;62593;-78
2024/03/22 00:16:48;;;;;;;;;;;;;;;;;;106559;1250;62065;-79
2024/03/22 00:19:14;;;;;;;;;;;;;;;;;;107254;1250;62161;-78
2024/03/22 00:21:40;;;;;;;;;;;;;;;;;;106544;1250;62163;-80
2024/03/22 00:24:06;;;;;;;;;;;;;;;;;;107215;1254;62164;-80
2024/03/22 00:26:32;;;;;;;;;;;;;;;;;;107158;1254;61934;-77
2024/03/22 00:28:59;;;;;;;;;;;;;;;;;;106577;1254;62205;-78
2024/03/22 00:31:25;;;;;;;;;;;;;;;;;;106591;1250;62102;-79
2024/03/22 00:33:51;;;;;;;;;;;;;;;;;;106538;1250;62070;-77
2024/03/22 00:36:17;;;;;;;;;;;;;;;;;;106542;1254;62038;-78
2024/03/22 00:38:43;;;;;;;;;;;;;;;;;;106589;1253;62012;-77
2024/03/22 00:41:09;;;;;;;;;;;;;;;;;;106609;1250;62166;-80
2024/03/22 00:43:36;;;;;;;;;;;;;;;;;;107163;1251;60002;-77
2024/03/22 00:46:02;;;;;;;;;;;;;;;;;;106521;1253;62118;-80
2024/03/22 00:48:28;;;;;;;;;;;;;;;;;;106597;1250;62613;-78
2024/03/22 00:50:55;;;;;;;;;;;;;;;;;;106550;1250;62072;-77
2024/03/22 00:53:21;;;;;;;;;;;;;;;;;;106588;1250;62224;-77
2024/03/22 00:55:50;;;;;;;;;;;;;;;;;;106562;1251;62061;-77
2024/03/22 00:58:17;;;;;;;;;;;;;;;;;;106601;1253;61998;-77
2024/03/22 01:00:44;;;;;;;;;;;;;;;;;;106636;1250;62132;-80
2024/03/22 01:03:10;;;;;;;;;;;;;;;;;;106570;1254;62061;-80
2024/03/22 01:05:36;;;;;;;;;;;;;;;;;;106552;1250;62584;-77
2024/03/22 01:08:02;;;;;;;;;;;;;;;;;;108778;1250;61917;-80
2024/03/22 01:10:29;;;;;;;;;;;;;;;;;;109682;1250;59652;-78
2024/03/22 01:12:55;;;;;;;;;;;;;;;;;;109703;1250;59772;-80
2024/03/22 01:15:21;;;;;;;;;;;;;;;;;;109613;1250;59886;-80
2024/03/22 01:17:47;;;;;;;;;;;;;;;;;;106579;1254;62027;-77
2024/03/22 01:20:13;;;;;;;;;;;;;;;;;;106565;1250;62023;-80
2024/03/22 01:22:40;;;;;;;;;;;;;;;;;;106577;1251;62760;-77
2024/03/22 01:25:06;;;;;;;;;;;;;;;;;;106662;1250;62525;-80
2024/03/22 01:27:32;;;;;;;;;;;;;;;;;;106550;1254;62145;-77
2024/03/22 01:29:58;;;;;;;;;;;;;;;;;;106623;1249;62150;-80
2024/03/22 01:32:24;;;;;;;;;;;;;;;;;;106576;1256;62016;-77
2024/03/22 01:34:51;;;;;;;;;;;;;;;;;;106557;1250;62144;-77
2024/03/22 01:37:17;;;;;;;;;;;;;;;;;;106560;1250;62149;-80
2024/03/22 01:39:43;;;;;;;;;;;;;;;;;;106594;1256;62047;-77
2024/03/22 01:42:09;;;;;;;;;;;;;;;;;;106579;1256;62167;-80
2024/03/22 01:44:35;;;;;;;;;;;;;;;;;;106570;1250;62134;-78
2024/03/22 01:47:01;;;;;;;;;;;;;;;;;;106570;1251;62002;-80
2024/03/22 01:49:28;;;;;;;;;;;;;;;;;;106542;1251;60739;-80
2024/03/22 01:51:54;;;;;;;;;;;;;;;;;;106635;1256;62122;-80
2024/03/22 01:54:20;;;;;;;;;;;;;;;;;;106585;1250;62496;-79
2024/03/22 01:56:46;;;;;;;;;;;;;;;;;;106563;1256;62162;-77
2024/03/22 01:59:12;;;;;;;;;;;;;;;;;;106638;1255;62133;-77
2024/03/22 02:01:38;;;;;;;;;;;;;;;;;;106553;1254;62130;-80
2024/03/22 02:04:05;;;;;;;;;;;;;;;;;;106616;1250;62169;-80
2024/03/22 02:06:31;;;;;;;;;;;;;;;;;;106527;1256;62141;-77
2024/03/22 02:08:57;;;;;;;;;;;;;;;;;;106586;1254;61101;-82
2024/03/22 02:11:23;;;;;;;;;;;;;;;;;;107227;1253;62147;-80
2024/03/22 02:13:49;;;;;;;;;;;;;;;;;;106570;1254;62154;-77
2024/03/22 02:16:15;;;;;;;;;;;;;;;;;;106608;1250;62416;-81
2024/03/22 02:18:42;;;;;;;;;;;;;;;;;;106619;1250;62064;-77
2024/03/22 02:21:08;;;;;;;;;;;;;;;;;;106632;1253;62074;-78
2024/03/22 02:23:34;;;;;;;;;;;;;;;;;;106821;1250;62156;-80
2024/03/22 02:26:01;;;;;;;;;;;;;;;;;;109737;1250;59921;-80
2024/03/22 02:28:27;;;;;;;;;;;;;;;;;;109113;1250;60012;-78
2024/03/22 02:30:53;;;;;;;;;;;;;;;;;;106584;1256;62146;-77
2024/03/22 02:33:20;;;;;;;;;;;;;;;;;;106628;1251;62054;-80
2024/03/22 02:35:46;;;;;;;;;;;;;;;;;;106552;1250;62136;-80
2024/03/22 02:38:12;;;;;;;;;;;;;;;;;;106532;1253;62586;-77
2024/03/22 02:40:38;;;;;;;;;;;;;;;;;;106546;1254;62101;-81
2024/03/22 02:43:05;;;;;;;;;;;;;;;;;;106622;1254;62157;-80
2024/03/22 02:45:31;;;;;;;;;;;;;;;;;;106597;1250;62147;-77
2024/03/22 02:47:57;;;;;;;;;;;;;;;;;;106590;1254;62113;-80
2024/03/22 02:50:23;;;;;;;;;;;;;;;;;;106582;1256;62131;-80
2024/03/22 02:52:49;;;;;;;;;;;;;;;;;;107185;1253;62136;-77
2024/03/22 02:55:15;;;;;;;;;;;;;;;;;;106578;1254;62005;-80
2024/03/22 02:57:41;;;;;;;;;;;;;;;;;;106590;1253;60004;-79
2024/03/22 03:00:07;;;;;;;;;;;;;;;;;;106610;1250;62218;-78
2024/03/22 03:02:34;;;;;;;;;;;;;;;;;;106567;1252;62528;-80
2024/03/22 03:05:00;;;;;;;;;;;;;;;;;;106563;1254;62157;-80
2024/03/22 03:07:27;;;;;;;;;;;;;;;;;;106563;1251;61905;-80
2024/03/22 03:09:53;;;;;;;;;;;;;;;;;;106573;1254;61937;-78
2024/03/22 03:12:19;;;;;;;;;;;;;;;;;;106568;1254;62155;-77
2024/03/22 03:14:46;;;;;;;;;;;;;;;;;;106562;1250;62159;-77
2024/03/22 03:17:12;;;;;;;;;;;;;;;;;;106556;1255;62153;-77
2024/03/22 03:19:38;;;;;;;;;;;;;;;;;;106527;1254;62150;-77
2024/03/22 03:22:04;;;;;;;;;;;;;;;;;;106615;1254;63052;-77
2024/03/22 03:24:30;;;;;;;;;;;;;;;;;;106580;1251;61952;-80
2024/03/22 03:26:57;;;;;;;;;;;;;;;;;;107204;1251;62061;-77
2024/03/22 03:29:23;;;;;;;;;;;;;;;;;;107184;1252;62112;-80
2024/03/22 03:31:49;;;;;;;;;;;;;;;;;;107226;1250;62130;-77
2024/03/22 03:34:15;;;;;;;;;;;;;;;;;;106577;1255;60624;-78
2024/03/22 03:36:41;;;;;;;;;;;;;;;;;;106592;1254;62180;-80
2024/03/22 03:39:08;;;;;;;;;;;;;;;;;;106600;1254;62041;-80
2024/03/22 03:41:34;;;;;;;;;;;;;;;;;;106571;1254;62077;-77
2024/03/22 03:44:00;;;;;;;;;;;;;;;;;;106578;1251;62028;-77
2024/03/22 03:46:26;;;;;;;;;;;;;;;;;;106501;1253;62122;-78
2024/03/22 03:48:52;;;;;;;;;;;;;;;;;;106583;1253;62055;-78
2024/03/22 03:51:19;;;;;;;;;;;;;;;;;;106590;1251;62023;-80
2024/03/22 03:53:45;;;;;;;;;;;;;;;;;;106541;1251;62019;-77
2024/03/22 03:56:11;;;;;;;;;;;;;;;;;;106589;1256;63210;-78
2024/03/22 03:58:37;;;;;;;;;;;;;;;;;;106633;1263;62112;-80
2024/03/22 04:01:03;;;;;;;;;;;;;;;;;;106548;1250;62111;-79
2024/03/22 04:03:29;;;;;;;;;;;;;;;;;;106542;1257;63211;-78
2024/03/22 04:05:56;;;;;;;;;;;;;;;;;;106628;1258;62136;-80
2024/03/22 04:08:22;;;;;;;;;;;;;;;;;;106561;1253;62163;-80
2024/03/22 04:10:48;;;;;;;;;;;;;;;;;;106562;1253;62045;-78
2024/03/22 04:13:14;;;;;;;;;;;;;;;;;;106621;1252;62096;-80
2024/03/22 04:15:40;;;;;;;;;;;;;;;;;;106580;1256;62165;-80
2024/03/22 04:18:07;;;;;;;;;;;;;;;;;;106653;1254;62156;-77
2024/03/22 04:20:33;;;;;;;;;;;;;;;;;;106588;1256;62157;-80
2024/03/22 04:22:59;;;;;;;;;;;;;;;;;;106695;1254;62599;-80
2024/03/22 04:25:25;;;;;;;;;;;;;;;;;;106644;1256;62102;-80
2024/03/22 04:27:51;;;;;;;;;;;;;;;;;;106693;1251;62144;-80
2024/03/22 04:30:17;;;;;;;;;;;;;;;;;;107219;1251;62186;-77
2024/03/22 04:32:44;;;;;;;;;;;;;;;;;;107055;1254;62064;-78
2024/03/22 04:35:10;;;;;;;;;;;;;;;;;;107559;1254;62076;-77
2024/03/22 04:37:36;;;;;;;;;;;;;;;;;;107404;1251;62776;-80
2024/03/22 04:40:02;;;;;;;;;;;;;;;;;;107909;1263;62122;-78
2024/03/22 04:42:29;;;;;;;;;;;;;;;;;;107168;1254;62143;-78
2024/03/22 04:44:55;;;;;;;;;;;;;;;;;;108042;1250;62039;-80
2024/03/22 04:47:21;;;;;;;;;;;;;;;;;;109591;1250;59697;-80
2024/03/22 04:49:47;;;;;;;;;;;;;;;;;;109367;1253;59721;-80
2024/03/22 04:52:13;;;;;;;;;;;;;;;;;;107961;1250;61547;-80
2024/03/22 04:54:39;;;;;;;;;;;;;;;;;;109557;1251;59661;-81
2024/03/22 04:57:06;;;;;;;;;;;;;;;;;;109659;1250;59898;-78
2024/03/22 04:59:32;;;;;;;;;;;;;;;;;;109705;1253;59951;-78
2024/03/22 05:01:58;;;;;;;;;;;;;;;;;;109705;1250;59749;-79
2024/03/22 05:04:24;;;;;;;;;;;;;;;;;;109641;1251;59963;-80
2024/03/22 05:06:50;;;;;;;;;;;;;;;;;;109665;1251;59716;-78
2024/03/22 05:09:16;;;;;;;;;;;;;;;;;;109695;1251;59666;-78
2024/03/22 05:11:43;;;;;;;;;;;;;;;;;;109693;1251;59669;-80
2024/03/22 05:14:09;;;;;;;;;;;;;;;;;;109691;1253;59657;-81
2024/03/22 05:16:35;;;;;;;;;;;;;;;;;;107734;1251;62084;-78
2024/03/22 05:19:01;;;;;;;;;;;;;;;;;;106640;1256;62144;-80
2024/03/22 05:21:27;;;;;;;;;;;;;;;;;;106614;1253;62099;-80
2024/03/22 05:23:53;;;;;;;;;;;;;;;;;;106707;1251;62163;-80
2024/03/22 05:26:20;;;;;;;;;;;;;;;;;;107192;1256;62026;-78
2024/03/22 05:28:46;;;;;;;;;;;;;;;;;;106712;1253;62212;-81
2024/03/22 05:31:13;;;;;;;;;;;;;;;;;;106581;1255;62078;-81
2024/03/22 05:33:39;;;;;;;;;;;;;;;;;;106638;1254;62086;-78
2024/03/22 05:36:05;;;;;;;;;;;;;;;;;;106621;1253;62150;-81
2024/03/22 05:38:31;;;;;;;;;;;;;;;;;;106606;1253;62130;-80
2024/03/22 05:40:57;;;;;;;;;;;;;;;;;;106569;1253;62150;-80
2024/03/22 05:43:23;;;;;;;;;;;;;;;;;;106629;1253;62006;-78
2024/03/22 05:45:50;;;;;;;;;;;;;;;;;;106577;1251;62032;-78
2024/03/22 05:48:16;;;;;;;;;;;;;;;;;;106575;1254;62137;-78
2024/03/22 05:50:42;;;;;;;;;;;;;;;;;;106614;1254;62049;-78
2024/03/22 05:53:08;;;;;;;;;;;;;;;;;;106568;1252;62150;-80
2024/03/22 05:55:34;;;;;;;;;;;;;;;;;;106541;1252;62157;-83
2024/03/22 05:58:01;;;;;;;;;;;;;;;;;;107102;1254;62510;-80
2024/03/22 06:00:27;;;;;;;;;;;;;;;;;;107167;1251;62114;-80
2024/03/22 06:02:53;;;;;;;;;;;;;;;;;;107292;1254;62151;-79
2024/03/22 06:05:19;;;;;;;;;;;;;;;;;;106651;1251;62159;-78
2024/03/22 06:07:46;;;;;;;;;;;;;;;;;;106613;1253;62192;-80
2024/03/22 06:10:12;;;;;;;;;;;;;;;;;;106433;1253;237756;-78
2024/03/22 06:12:38;;;;;;;;;;;;;;;;;;106629;1251;62073;-80
2024/03/22 06:15:06;;;;;;;;;;;;;;;;;;106603;1253;62134;-77
2024/03/22 06:17:33;;;;;;;;;;;;;;;;;;109730;1251;60015;-78
2024/03/22 06:19:59;;;;;;;;;;;;;;;;;;109654;1251;61824;-78
2024/03/22 06:22:26;;;;;;;;;;;;;;;;;;109672;1251;59776;-78
2024/03/22 06:24:52;;;;;;;;;;;;;;;;;;109646;1251;59612;-81
2024/03/22 06:27:19;;;;;;;;;;;;;;;;;;109648;1251;59952;-81
2024/03/22 06:29:46;;;;;;;;;;;;;;;;;;109696;1251;59590;-81
2024/03/22 06:32:12;;;;;;;;;;;;;;;;;;107906;1251;62010;-78
2024/03/22 06:34:38;;;;;;;;;;;;;;;;;;106785;1251;62067;-80
2024/03/22 06:37:04;;;;;;;;;;;;;;;;;;106545;1251;62155;-77
2024/03/22 06:39:30;;;;;;;;;;;;;;;;;;106578;1254;62154;-80
2024/03/22 06:41:57;;;;;;;;;;;;;;;;;;106620;1251;62173;-78
2024/03/22 06:44:23;;;;;;;;;;;;;;;;;;106584;1251;62179;-78
2024/03/22 06:46:49;;;;;;;;;;;;;;;;;;106588;1253;62096;-80
2024/03/22 06:49:17;;;;;;;;;;;;;;;;;;106719;1251;62146;-78
2024/03/22 06:51:43;;;;;;;;;;;;;;;;;;106627;1255;62198;-78
2024/03/22 06:54:09;;;;;;;;;;;;;;;;;;106664;1251;62079;-78
2024/03/22 06:56:35;;;;;;;;;;;;;;;;;;106761;1251;62159;-80
2024/03/22 06:59:02;;;;;;;;;;;;;;;;;;106791;1252;62144;-78
2024/03/22 07:01:28;;;;;;;;;;;;;;;;;;106860;1251;62193;-80
2024/03/22 07:03:54;;;;;;;;;;;;;;;;;;106684;1253;62131;-80
2024/03/22 07:06:20;;;;;;;;;;;;;;;;;;106687;1251;62138;-81
2024/03/22 07:08:47;;;;;;;;;;;;;;;;;;106643;1251;62093;-78
2024/03/22 07:11:13;;;;;;;;;;;;;;;;;;106748;1251;62066;-78
2024/03/22 07:13:39;;;;;;;;;;;;;;;;;;106648;1253;62562;-79
2024/03/22 07:16:05;;;;;;;;;;;;;;;;;;106594;1251;62005;-80
2024/03/22 07:18:31;;;;;;;;;;;;;;;;;;106674;1251;62070;-78
2024/03/22 07:21:01;;;;;;;;;;;;;;;;;;106690;1252;62144;-79
2024/03/22 07:23:27;;;;;;;;;;;;;;;;;;106663;1251;62100;-78
2024/03/22 07:25:53;;;;;;;;;;;;;;;;;;106804;1254;63086;-78
2024/03/22 07:28:19;;;;;;;;;;;;;;;;;;106845;1254;62163;-77
2024/03/22 07:30:45;;;;;;;;;;;;;;;;;;106723;1253;62130;-78
2024/03/22 07:33:17;;;;;;;;;;;;;;;;;;106682;1251;62085;-80
2024/03/22 07:35:43;;;;;;;;;;;;;;;;;;106673;1254;61853;-80
2024/03/22 07:38:10;;;;;;;;;;;;;;;;;;106744;1251;62134;-80
2024/03/22 07:40:36;;;;;;;;;;;;;;;;;;107646;1251;62060;-78
2024/03/22 07:43:08;;;;;;;;;;;;;;;;;;107546;1251;62108;-77
2024/03/22 07:45:34;;;;;;;;;;;;;;;;;;106815;1251;62068;-80
2024/03/22 07:48:00;;;;;;;;;;;;;;;;;;107507;1250;62015;-78
2024/03/22 07:50:27;;;;;;;;;;;;;;;;;;107303;1251;60318;-81
2024/03/22 07:52:53;;;;;;;;;;;;;;;;;;107434;1251;61993;-81
2024/03/22 07:55:19;;;;;;;;;;;;;;;;;;107385;1253;62127;-78
2024/03/22 07:57:45;;;;;;;;;;;;;;;;;;106774;1251;62226;-78
2024/03/22 08:00:11;;;;;;;;;;;;;;;;;;106904;1251;60838;-77
2024/03/22 08:02:38;;;;;;;;;;;;;;;;;;106771;1254;62149;-78
2024/03/22 08:05:05;;;;;;;;;;;;;;;;;;106724;1253;62147;-77
2024/03/22 08:07:31;;;;;;;;;;;;;;;;;;106692;1251;62146;-81
2024/03/22 08:09:58;;;;;;;;;;;;;;;;;;106909;1251;62030;-80
2024/03/22 08:12:24;;;;;;;;;;;;;;;;;;106718;1251;62054;-80
2024/03/22 08:14:51;;;;;;;;;;;;;;;;;;107447;1251;61943;-77
2024/03/22 08:17:17;;;;;;;;;;;;;;;;;;107101;1251;61985;-77
2024/03/22 08:19:44;;;;;;;;;;;;;;;;;;106910;1251;62070;-77
2024/03/22 08:22:10;;;;;;;;;;;;;;;;;;106902;1254;62128;-77
2024/03/22 08:24:37;;;;;;;;;;;;;;;;;;106927;1251;60059;-81
2024/03/22 08:27:03;;;;;;;;;;;;;;;;;;107822;1250;62074;-80
2024/03/22 08:29:29;;;;;;;;;;;;;;;;;;107758;1251;62030;-80
2024/03/22 08:31:56;;;;;;;;;;;;;;;;;;107401;1250;62019;-78
2024/03/22 08:34:22;;;;;;;;;;;;;;;;;;106722;1251;62038;-77
2024/03/22 08:36:48;;;;;;;;;;;;;;;;;;106904;1253;62561;-78
2024/03/22 08:39:15;;;;;;;;;;;;;;;;;;106732;1251;62179;-77
2024/03/22 08:41:41;;;;;;;;;;;;;;;;;;106751;1250;62137;-80
2024/03/22 08:44:07;;;;;;;;;;;;;;;;;;107416;1250;62111;-77
2024/03/22 08:46:34;;;;;;;;;;;;;;;;;;106831;1254;62035;-77
2024/03/22 08:49:00;;;;;;;;;;;;;;;;;;106835;1251;61101;-78
2024/03/22 08:51:26;;;;;;;;;;;;;;;;;;106887;1254;62095;-81
2024/03/22 08:53:52;;;;;;;;;;;;;;;;;;107449;1251;62692;-77
2024/03/22 08:56:19;;;;;;;;;;;;;;;;;;106764;1253;62079;-80
2024/03/22 08:58:45;;;;;;;;;;;;;;;;;;106826;1248;62228;-80
2024/03/22 09:01:11;;;;;;;;;;;;;;;;;;107607;1248;62032;-78
2024/03/22 09:03:37;;;;;;;;;;;;;;;;;;107836;1253;62065;-78
2024/03/22 09:06:04;;;;;;;;;;;;;;;;;;107174;1251;62069;-81
2024/03/22 09:08:31;;;;;;;;;;;;;;;;;;109588;1251;60044;-81
2024/03/22 09:10:57;;;;;;;;;;;;;;;;;;109582;1248;60042;-79
2024/03/22 09:13:23;;;;;;;;;;;;;;;;;;109609;1249;59877;-81
2024/03/22 09:15:49;;;;;;;;;;;;;;;;;;109699;1248;59658;-79
2024/03/22 09:18:16;;;;;;;;;;;;;;;;;;109617;1249;59583;-82
2024/03/22 09:20:42;;;;;;;;;;;;;;;;;;109701;1249;59834;-80
2024/03/22 09:23:08;;;;;;;;;;;;;;;;;;109658;1249;60161;-78
2024/03/22 09:25:34;;;;;;;;;;;;;;;;;;109642;1249;60051;-81
2024/03/22 09:28:00;;;;;;;;;;;;;;;;;;109680;1249;59745;-80
2024/03/22 09:30:27;;;;;;;;;;;;;;;;;;109632;1249;59819;-78
2024/03/22 09:32:53;;;;;;;;;;;;;;;;;;109679;1249;60921;-81
2024/03/22 09:35:19;;;;;;;;;;;;;;;;;;109563;1249;59908;-78
2024/03/22 09:37:45;;;;;;;;;;;;;;;;;;109647;1250;59614;-78
2024/03/22 09:40:12;;;;;;;;;;;;;;;;;;109523;1249;59915;-80
2024/03/22 09:42:41;;;;;;;;;;;;;;;;;;109027;1251;62137;-80
2024/03/22 09:45:07;;;;;;;;;;;;;;;;;;106865;1253;62147;-78
2024/03/22 09:47:33;;;;;;;;;;;;;;;;;;106803;1254;62156;-80
2024/03/22 09:50:00;;;;;;;;;;;;;;;;;;109604;1250;59795;-81
2024/03/22 09:52:27;;;;;;;;;;;;;;;;;;109750;1248;59707;-81
2024/03/22 09:54:53;;;;;;;;;;;;;;;;;;109469;1250;59815;-80
2024/03/22 09:57:19;;;;;;;;;;;;;;;;;;107375;1250;62144;-80
2024/03/22 09:59:45;;;;;;;;;;;;;;;;;;107173;1249;62137;-81
2024/03/22 10:02:15;;;;;;;;;;;;;;;;;;107444;1248;60244;-78
2024/03/22 10:04:41;;;;;;;;;;;;;;;;;;107466;1253;62778;-81
2024/03/22 10:07:10;;;;;;;;;;;;;;;;;;107451;1250;62176;-78
2024/03/22 10:09:36;;;;;;;;;;;;;;;;;;107285;1250;62105;-81
2024/03/22 10:12:06;;;;;;;;;;;;;;;;;;107134;1250;62044;-79
2024/03/22 10:14:33;;;;;;;;;;;;;;;;;;107245;1250;62669;-79
2024/03/22 10:16:59;;;;;;;;;;;;;;;;;;107363;1249;62730;-82
2024/03/22 10:19:25;;;;;;;;;;;;;;;;;;107171;1254;62262;-79
2024/03/22 10:21:51;;;;;;;;;;;;;;;;;;107054;1248;62142;-82
2024/03/22 10:24:18;;;;;;;;;;;;;;;;;;107533;1250;61876;-79
2024/03/22 10:26:45;;;;;;;;;;;;;;;;;;107361;1249;62159;-79
2024/03/22 10:29:11;;;;;;;;;;;;;;;;;;107236;1251;62141;-82
2024/03/22 10:31:37;;;;;;;;;;;;;;;;;;107323;1250;62070;-79
2024/03/22 10:34:04;;;;;;;;;;;;;;;;;;107296;1251;62002;-80
2024/03/22 10:36:31;;;;;;;;;;;;;;;;;;107430;1250;62158;-80
2024/03/22 10:38:57;;;;;;;;;;;;;;;;;;107348;1250;62034;-80
2024/03/22 10:41:23;;;;;;;;;;;;;;;;;;107300;1251;62075;-82
2024/03/22 10:43:49;;;;;;;;;;;;;;;;;;107449;1250;62648;-79
2024/03/22 10:46:15;;;;;;;;;;;;;;;;;;107391;1250;62154;-82
2024/03/22 10:48:42;;;;;;;;;;;;;;;;;;107233;1254;62037;-82
2024/03/22 10:51:08;;;;;;;;;;;;;;;;;;107234;1251;62145;-82
2024/03/22 10:53:34;;;;;;;;;;;;;;;;;;107178;1250;62122;-80
2024/03/22 10:56:00;;;;;;;;;;;;;;;;;;107351;1250;62144;-82
2024/03/22 10:58:27;;;;;;;;;;;;;;;;;;107272;1250;62112;-80
2024/03/22 11:00:53;;;;;;;;;;;;;;;;;;107203;1254;62053;-79
2024/03/22 11:03:19;;;;;;;;;;;;;;;;;;107153;1253;62782;-80
2024/03/22 11:05:45;;;;;;;;;;;;;;;;;;107331;1250;61963;-79
2024/03/22 11:08:11;;;;;;;;;;;;;;;;;;107332;1251;62117;-79
2024/03/22 11:10:37;;;;;;;;;;;;;;;;;;107198;1250;62089;-82
2024/03/22 11:13:03;;;;;;;;;;;;;;;;;;107310;1253;62149;-78
2024/03/22 11:15:30;;;;;;;;;;;;;;;;;;106721;1250;62273;-80
2024/03/22 11:17:56;;;;;;;;;;;;;;;;;;107359;1250;62070;-81
2024/03/22 11:20:22;;;;;;;;;;;;;;;;;;106619;1250;62153;-80
2024/03/22 11:22:48;;;;;;;;;;;;;;;;;;107335;1250;62146;-81
2024/03/22 11:25:15;;;;;;;;;;;;;;;;;;107282;1249;62041;-80
2024/03/22 11:27:41;;;;;;;;;;;;;;;;;;107335;1252;62059;-80
2024/03/22 11:30:07;;;;;;;;;;;;;;;;;;107351;1250;62081;-83
2024/03/22 11:32:42;;;;;;;;;;;;;;;;;;107325;1250;62047;-79
2024/03/22 11:35:08;;;;;;;;;;;;;;;;;;107350;1251;62042;-82
2024/03/22 11:37:35;;;;;;;;;;;;;;;;;;107411;1249;62636;-82
2024/03/22 11:40:04;;;;;;;;;;;;;;;;;;107308;1252;62144;-82
2024/03/22 11:42:30;;;;;;;;;;;;;;;;;;107316;1253;62128;-82
2024/03/22 11:44:56;;;;;;;;;;;;;;;;;;107335;1251;62074;-79
2024/03/22 11:47:23;;;;;;;;;;;;;;;;;;107288;1252;62169;-81
2024/03/22 11:49:49;;;;;;;;;;;;;;;;;;107344;1250;62176;-79
2024/03/22 11:52:15;;;;;;;;;;;;;;;;;;107335;1250;60226;-82
2024/03/22 11:54:41;;;;;;;;;;;;;;;;;;107356;1249;61960;-79
2024/03/22 11:57:07;;;;;;;;;;;;;;;;;;107519;1250;62108;-80
2024/03/22 11:59:33;;;;;;;;;;;;;;;;;;107323;1253;62009;-79
2024/03/22 12:02:00;;;;;;;;;;;;;;;;;;107342;1253;62772;-80
2024/03/22 12:04:26;;;;;;;;;;;;;;;;;;107276;1249;62125;-80
2024/03/22 12:06:53;;;;;;;;;;;;;;;;;;107402;1250;62074;-81
2024/03/22 12:09:19;;;;;;;;;;;;;;;;;;107406;1250;62164;-82
2024/03/22 12:11:46;;;;;;;;;;;;;;;;;;107583;1250;62080;-82
2024/03/22 12:14:12;;;;;;;;;;;;;;;;;;107617;1250;62102;-81
2024/03/22 12:16:38;;;;;;;;;;;;;;;;;;107592;1254;62156;-80
2024/03/22 12:19:06;;;;;;;;;;;;;;;;;;106863;1250;62135;-81
2024/03/22 12:21:33;;;;;;;;;;;;;;;;;;107511;1249;60274;-81
2024/03/22 12:23:59;;;;;;;;;;;;;;;;;;108358;1250;60349;-81
2024/03/22 12:26:25;;;;;;;;;;;;;;;;;;107898;1250;62141;-78
2024/03/22 12:28:51;;;;;;;;;;;;;;;;;;107826;1249;61958;-79
2024/03/22 12:31:18;;;;;;;;;;;;;;;;;;107272;1249;62694;-81
2024/03/22 12:33:45;;;;;;;;;;;;;;;;;;107200;1250;62066;-80
2024/03/22 12:36:11;;;;;;;;;;;;;;;;;;107586;1250;62099;-78
2024/03/22 12:38:37;;;;;;;;;;;;;;;;;;107410;1249;62061;-78
2024/03/22 12:41:03;;;;;;;;;;;;;;;;;;107495;1249;62476;-81
2024/03/22 12:43:29;;;;;;;;;;;;;;;;;;107198;1250;62071;-78
2024/03/22 12:45:55;;;;;;;;;;;;;;;;;;107373;1251;62066;-78
2024/03/22 12:48:22;;;;;;;;;;;;;;;;;;107432;1250;62096;-80
2024/03/22 12:50:48;;;;;;;;;;;;;;;;;;107324;1250;63540;-78
2024/03/22 12:53:14;;;;;;;;;;;;;;;;;;107209;1250;60660;-78
2024/03/22 12:55:40;;;;;;;;;;;;;;;;;;106730;1250;62083;-80
2024/03/22 12:58:06;;;;;;;;;;;;;;;;;;106619;1251;62111;-80
2024/03/22 13:00:33;;;;;;;;;;;;;;;;;;107283;1251;62088;-78
2024/03/22 13:02:59;;;;;;;;;;;;;;;;;;106637;1251;61970;-80
2024/03/22 13:05:26;;;;;;;;;;;;;;;;;;107261;1250;62016;-78
2024/03/22 13:07:52;;;;;;;;;;;;;;;;;;107530;1250;60072;-81
2024/03/22 13:10:18;;;;;;;;;;;;;;;;;;107582;1249;62055;-81
2024/03/22 13:12:44;;;;;;;;;;;;;;;;;;107417;1250;62076;-78
2024/03/22 13:15:11;;;;;;;;;;;;;;;;;;107555;1250;62046;-78
2024/03/22 13:17:37;;;;;;;;;;;;;;;;;;107655;1251;62604;-78
2024/03/22 13:20:09;;;;;;;;;;;;;;;;;;107547;1251;62055;-78
2024/03/22 13:22:36;;;;;;;;;;;;;;;;;;107362;1251;62388;-78
2024/03/22 13:25:06;;;;;;;;;;;;;;;;;;107222;1253;62026;-78
2024/03/22 13:27:32;;;;;;;;;;;;;;;;;;107297;1250;61015;-78
2024/03/22 13:29:59;;;;;;;;;;;;;;;;;;106768;1250;62048;-81
2024/03/22 13:32:25;;;;;;;;;;;;;;;;;;107181;1250;62062;-80
2024/03/22 13:34:51;;;;;;;;;;;;;;;;;;107426;1250;62068;-78
2024/03/22 13:37:17;;;;;;;;;;;;;;;;;;107561;1250;63259;-78
2024/03/22 13:39:43;;;;;;;;;;;;;;;;;;107575;1249;60412;-78
2024/03/22 13:42:09;;;;;;;;;;;;;;;;;;107423;1250;60317;-78
2024/03/22 13:44:36;;;;;;;;;;;;;;;;;;107551;1250;62528;-78
2024/03/22 13:47:04;;;;;;;;;;;;;;;;;;107604;1250;62173;-81
2024/03/22 13:49:31;;;;;;;;;;;;;;;;;;107205;1253;61969;-79
2024/03/22 13:51:57;;;;;;;;;;;;;;;;;;107408;1250;61917;-80
2024/03/22 13:54:23;;;;;;;;;;;;;;;;;;107173;1253;62122;-78
2024/03/22 13:56:49;;;;;;;;;;;;;;;;;;107509;1250;60436;-78
2024/03/22 13:59:16;;;;;;;;;;;;;;;;;;106581;1251;62030;-81
2024/03/22 14:01:45;;;;;;;;;;;;;;;;;;107325;1253;62067;-78
2024/03/22 14:04:11;;;;;;;;;;;;;;;;;;107247;1249;62060;-79
2024/03/22 14:06:37;;;;;;;;;;;;;;;;;;107392;1253;62038;-81
2024/03/22 14:09:04;;;;;;;;;;;;;;;;;;107246;1250;62144;-79
2024/03/22 14:11:30;;;;;;;;;;;;;;;;;;107267;1251;62289;-81
2024/03/22 14:13:57;;;;;;;;;;;;;;;;;;107191;1253;62076;-80
2024/03/22 14:16:23;;;;;;;;;;;;;;;;;;107341;1249;62221;-81
2024/03/22 14:18:49;;;;;;;;;;;;;;;;;;107263;1250;62134;-80
2024/03/22 14:21:19;;;;;;;;;;;;;;;;;;107335;1250;62117;-81
2024/03/22 14:23:45;;;;;;;;;;;;;;;;;;107107;1249;63560;-81
2024/03/22 14:26:11;;;;;;;;;;;;;;;;;;107345;1250;62012;-81
2024/03/22 14:28:39;;;;;;;;;;;;;;;;;;107151;1250;62743;-81
2024/03/22 14:31:08;;;;;;;;;;;;;;;;;;107282;1250;62031;-80
2024/03/22 14:33:34;;;;;;;;;;;;;;;;;;107195;1250;62026;-79
2024/03/22 14:36:00;;;;;;;;;;;;;;;;;;107209;1253;62416;-81
2024/03/22 14:38:27;;;;;;;;;;;;;;;;;;107203;1253;62147;-78
2024/03/22 14:40:54;;;;;;;;;;;;;;;;;;107199;1250;62422;-80
2024/03/22 14:43:20;;;;;;;;;;;;;;;;;;107510;1251;62087;-81
2024/03/22 14:45:46;;;;;;;;;;;;;;;;;;107390;1254;62120;-81
2024/03/22 14:48:12;;;;;;;;;;;;;;;;;;107516;1250;62153;-81
2024/03/22 14:50:38;;;;;;;;;;;;;;;;;;107570;1249;62036;-79
2024/03/22 14:53:04;;;;;;;;;;;;;;;;;;107496;1250;62142;-81
2024/03/22 14:55:30;;;;;;;;;;;;;;;;;;107518;1249;63252;-79
2024/03/22 14:57:57;;;;;;;;;;;;;;;;;;107498;1250;62181;-79
2024/03/22 15:00:26;;;;;;;;;;;;;;;;;;107356;1253;62015;-78
2024/03/22 15:02:52;;;;;;;;;;;;;;;;;;107253;1254;62163;-79
2024/03/22 15:05:18;;;;;;;;;;;;;;;;;;107187;1251;62015;-79
2024/03/22 15:07:44;;;;;;;;;;;;;;;;;;106968;1250;62223;-81
2024/03/22 15:10:10;;;;;;;;;;;;;;;;;;106957;1254;62044;-79
2024/03/22 15:12:37;;;;;;;;;;;;;;;;;;107030;1250;62078;-80
2024/03/22 15:15:03;;;;;;;;;;;;;;;;;;107127;1249;62093;-79
2024/03/22 15:17:29;;;;;;;;;;;;;;;;;;107261;1250;63858;-79
2024/03/22 15:19:55;;;;;;;;;;;;;;;;;;106939;1250;62040;-80
2024/03/22 15:22:22;;;;;;;;;;;;;;;;;;107222;1250;59848;-79
2024/03/22 15:24:48;;;;;;;;;;;;;;;;;;109628;1249;59908;-81
2024/03/22 15:27:15;;;;;;;;;;;;;;;;;;109566;1250;59684;-79
2024/03/22 15:29:41;;;;;;;;;;;;;;;;;;109628;1250;59679;-79
2024/03/22 15:32:07;;;;;;;;;;;;;;;;;;109586;1250;59696;-81
2024/03/22 15:34:33;;;;;;;;;;;;;;;;;;108258;1250;62141;-78
2024/03/22 15:37:00;;;;;;;;;;;;;;;;;;107281;1250;62074;-81
2024/03/22 15:39:26;;;;;;;;;;;;;;;;;;107007;1250;62231;-81
2024/03/22 15:41:53;;;;;;;;;;;;;;;;;;106963;1254;60101;-79
2024/03/22 15:44:19;;;;;;;;;;;;;;;;;;106985;1250;63122;-78
2024/03/22 15:46:45;;;;;;;;;;;;;;;;;;106933;1254;62154;-81
2024/03/22 15:49:12;;;;;;;;;;;;;;;;;;107037;1250;62241;-81
2024/03/22 15:51:40;;;;;;;;;;;;;;;;;;107018;1251;60979;-82
2024/03/22 15:54:06;;;;;;;;;;;;;;;;;;106959;1254;62013;-79
2024/03/22 15:56:33;;;;;;;;;;;;;;;;;;106346;1253;62147;-81
2024/03/22 15:58:59;;;;;;;;;;;;;;;;;;106711;1250;62067;-79
2024/03/22 16:01:25;;;;;;;;;;;;;;;;;;106557;1254;62135;-78
2024/03/22 16:03:51;;;;;;;;;;;;;;;;;;106313;1250;63095;-78
2024/03/22 16:06:17;;;;;;;;;;;;;;;;;;106325;1250;62042;-82
2024/03/22 16:08:44;;;;;;;;;;;;;;;;;;106739;1250;62128;-79
2024/03/22 16:11:10;;;;;;;;;;;;;;;;;;106588;1253;62148;-82
2024/03/22 16:13:36;;;;;;;;;;;;;;;;;;106652;1251;62929;-81
2024/03/22 16:16:02;;;;;;;;;;;;;;;;;;106651;1255;62080;-79
2024/03/22 16:18:28;;;;;;;;;;;;;;;;;;106722;1250;62062;-82
2024/03/22 16:20:54;;;;;;;;;;;;;;;;;;106653;1254;62125;-79
2024/03/22 16:23:21;;;;;;;;;;;;;;;;;;106674;1254;62105;-80